Time;durP1;ratioP1;P1;durP2;ratioP2;P2;SDS_P1;SDS_P2;PMS_P1;PMS_P2;Temp;Humidity;BMP_temperature;BMP_pressure;BME280_temperature;BME280_humidity;BME280_pressure;Samples;Min_cycle;Max_cycle;Signal;HPM_P1;HPM_P2
2022/04/04 00:02:05;;;;;;;3.50;1.90;;;12.50;98.20;;;;;;5044077;28;20055;-83
2022/04/04 00:04:32;;;;;;;2.70;1.80;;;12.50;98.20;;;;;;5056670;28;20477;-81
2022/04/04 00:07:03;;;;;;;3.03;2.00;;;12.50;98.40;;;;;;5079066;28;20059;-79
2022/04/04 00:09:30;;;;;;;3.03;1.80;;;12.50;98.30;;;;;;5075938;28;20118;-80
2022/04/04 00:11:58;;;;;;;3.95;2.03;;;12.60;98.30;;;;;;5081286;28;20059;-80
2022/04/04 00:14:25;;;;;;;4.10;1.90;;;12.60;98.20;;;;;;5057448;28;20117;-81
2022/04/04 00:16:53;;;;;;;3.10;1.80;;;12.60;98.20;;;;;;5065383;28;20398;-80
2022/04/04 00:19:22;;;;;;;2.83;2.17;;;12.60;98.10;;;;;;5081421;28;20052;-80
2022/04/04 00:21:50;;;;;;;2.20;1.65;;;12.60;98.10;;;;;;5062035;28;20056;-80
2022/04/04 00:24:17;;;;;;;4.90;2.30;;;12.60;98.20;;;;;;5064423;28;20047;-80
2022/04/04 00:26:45;;;;;;;4.95;1.73;;;12.60;98.20;;;;;;5061837;28;20509;-80
2022/04/04 00:29:15;;;;;;;4.75;1.77;;;12.50;98.10;;;;;;5076952;28;20147;-79
2022/04/04 00:31:43;;;;;;;6.80;2.10;;;12.50;98.20;;;;;;5066705;28;20055;-80
2022/04/04 00:34:11;;;;;;;5.63;2.05;;;12.40;98.30;;;;;;5072533;28;20414;-80
2022/04/04 00:36:40;;;;;;;3.70;1.77;;;12.40;98.20;;;;;;5067018;28;20158;-80
2022/04/04 00:39:08;;;;;;;3.65;1.95;;;12.50;98.40;;;;;;5060756;28;20139;-78
2022/04/04 00:41:35;;;;;;;2.58;1.55;;;12.50;98.40;;;;;;5080485;28;20791;-80
2022/04/04 00:44:03;;;;;;;3.33;1.80;;;12.50;98.20;;;;;;5097641;28;20582;-80
2022/04/04 00:46:35;;;;;;;5.18;1.73;;;12.50;98.40;;;;;;5089358;28;20051;-78
2022/04/04 00:49:04;;;;;;;3.60;1.95;;;12.50;98.40;;;;;;5096120;28;20079;-77
2022/04/04 00:51:31;;;;;;;2.45;1.70;;;12.50;98.30;;;;;;5058126;28;20052;-77
2022/04/04 00:53:59;;;;;;;2.70;1.60;;;12.50;98.30;;;;;;5066552;28;20052;-78
2022/04/04 00:56:27;;;;;;;2.55;1.98;;;12.50;98.30;;;;;;5055647;28;20067;-78
2022/04/04 00:58:55;;;;;;;3.35;1.70;;;12.50;98.20;;;;;;5053892;28;20375;-77
2022/04/04 01:01:22;;;;;;;2.63;1.48;;;12.50;98.20;;;;;;5083123;28;20052;-79
2022/04/04 01:03:50;;;;;;;2.97;1.92;;;12.50;98.30;;;;;;5063611;28;20055;-79
2022/04/04 01:06:18;;;;;;;3.22;1.75;;;12.50;98.30;;;;;;5080734;28;20036;-79
2022/04/04 01:08:46;;;;;;;5.15;1.80;;;12.50;98.30;;;;;;5067673;28;20127;-79
2022/04/04 01:11:13;;;;;;;3.50;1.65;;;12.50;98.30;;;;;;5101178;28;20079;-79
2022/04/04 01:13:46;;;;;;;3.42;1.38;;;12.50;98.30;;;;;;5082306;28;20036;-78
2022/04/04 01:16:14;;;;;;;2.35;1.60;;;12.50;98.30;;;;;;5065057;28;20074;-80
2022/04/04 01:18:42;;;;;;;4.13;1.70;;;12.50;98.20;;;;;;5038247;28;20051;-78
2022/04/04 01:21:10;;;;;;;3.95;2.05;;;12.50;98.10;;;;;;5083312;28;20039;-80
2022/04/04 01:23:42;;;;;;;2.45;1.27;;;12.50;98.20;;;;;;5058824;28;20067;-78
2022/04/04 01:26:12;;;;;;;5.95;1.55;;;12.50;98.20;;;;;;5071787;28;20047;-79
2022/04/04 01:28:40;;;;;;;5.07;1.83;;;12.50;98.20;;;;;;5048295;28;20565;-78
2022/04/04 01:31:08;;;;;;;3.13;1.80;;;12.60;98.20;;;;;;5065471;28;20178;-78
2022/04/04 01:33:37;;;;;;;4.32;2.50;;;12.50;98.30;;;;;;5056429;28;20414;-78
2022/04/04 01:36:05;;;;;;;3.50;2.30;;;12.50;98.40;;;;;;5074691;28;20043;-78
2022/04/04 01:38:33;;;;;;;2.50;1.70;;;12.50;98.50;;;;;;5074724;28;20630;-78
2022/04/04 01:41:00;;;;;;;3.67;1.77;;;12.60;98.70;;;;;;5041843;28;20083;-78
2022/04/04 01:43:28;;;;;;;2.83;1.90;;;12.60;98.80;;;;;;5075075;28;20131;-77
2022/04/04 01:48:42;;;;;;;5.47;1.58;;;12.60;98.90;;;;;;5057985;28;20055;-78
2022/04/04 01:51:09;;;;;;;3.45;2.13;;;12.60;98.90;;;;;;5074840;28;20044;-77
2022/04/04 01:53:37;;;;;;;5.10;2.85;;;12.50;98.90;;;;;;5058024;28;20596;-77
2022/04/04 01:56:05;;;;;;;3.33;2.42;;;12.60;99.00;;;;;;5092566;28;20072;-77
2022/04/04 01:58:33;;;;;;;5.55;3.03;;;12.50;99.00;;;;;;5057121;28;20047;-78
2022/04/04 02:01:03;;;;;;;5.93;2.65;;;12.50;99.10;;;;;;5074390;28;20052;-77
2022/04/04 02:03:31;;;;;;;5.00;3.30;;;12.50;99.10;;;;;;5057750;28;20051;-78
2022/04/04 02:06:00;;;;;;;3.42;2.50;;;12.40;99.10;;;;;;5058301;28;20101;-77
2022/04/04 02:08:28;;;;;;;3.38;2.70;;;12.40;99.10;;;;;;5091890;28;20052;-78
2022/04/04 02:10:56;;;;;;;6.35;2.55;;;12.40;99.20;;;;;;5057696;28;20516;-77
2022/04/04 02:13:25;;;;;;;3.53;2.20;;;12.30;99.40;;;;;;5091384;28;20044;-77
2022/04/04 02:15:54;;;;;;;3.70;2.15;;;12.30;99.50;;;;;;5057357;28;20048;-78
2022/04/04 02:18:22;;;;;;;13.93;2.60;;;12.30;99.60;;;;;;5073663;28;20394;-77
2022/04/04 02:20:50;;;;;;;4.40;2.30;;;12.20;99.60;;;;;;5073761;28;20040;-77
2022/04/04 02:23:18;;;;;;;4.28;2.15;;;12.20;99.70;;;;;;5073407;28;20072;-77
2022/04/04 02:25:50;;;;;;;3.92;1.98;;;12.20;99.80;;;;;;5057003;28;20076;-77
2022/04/04 02:28:19;;;;;;;3.58;2.38;;;12.20;99.80;;;;;;5073800;28;20521;-77
2022/04/04 02:30:49;;;;;;;9.35;2.35;;;12.20;99.80;;;;;;5057512;28;20075;-77
2022/04/04 02:33:18;;;;;;;2.97;1.80;;;12.30;99.80;;;;;;5057250;28;20071;-77
2022/04/04 02:35:46;;;;;;;3.78;2.30;;;12.30;99.70;;;;;;5073663;28;20771;-77
2022/04/04 02:38:14;;;;;;;3.80;2.20;;;12.30;99.80;;;;;;5056392;28;20040;-77
2022/04/04 02:40:41;;;;;;;4.07;2.45;;;12.30;99.90;;;;;;5073349;28;20570;-77
2022/04/04 02:43:09;;;;;;;3.85;2.28;;;12.20;99.90;;;;;;5057216;28;20036;-77
2022/04/04 02:45:36;;;;;;;6.50;2.33;;;12.20;99.90;;;;;;5055651;28;20076;-77
2022/04/04 02:48:05;;;;;;;4.95;2.30;;;12.30;99.90;;;;;;5073494;28;20040;-78
2022/04/04 02:50:34;;;;;;;3.88;2.10;;;12.30;99.90;;;;;;5053855;28;20101;-77
2022/04/04 02:53:02;;;;;;;4.95;3.05;;;12.30;99.90;;;;;;5056716;28;20816;-77
2022/04/04 02:58:16;;;;;;;6.13;2.13;;;12.30;99.90;;;;;;5055466;28;20063;-77
2022/04/04 03:00:44;;;;;;;5.38;2.17;;;12.30;99.90;;;;;;5087972;28;20028;-77
2022/04/04 03:03:12;;;;;;;3.40;2.15;;;12.30;99.90;;;;;;5069883;28;20885;-77
2022/04/04 03:05:39;;;;;;;3.75;2.33;;;12.30;99.90;;;;;;5091493;28;20513;-77
2022/04/04 03:08:07;;;;;;;5.57;2.30;;;12.30;99.90;;;;;;5056191;28;20401;-77
2022/04/04 03:10:35;;;;;;;3.30;2.10;;;12.30;99.90;;;;;;5055842;28;20498;-77
2022/04/04 03:13:05;;;;;;;3.58;2.17;;;12.20;99.90;;;;;;5072753;28;20406;-78
2022/04/04 03:15:34;;;;;;;3.03;2.08;;;12.20;99.90;;;;;;5055924;28;20056;-77
2022/04/04 03:18:03;;;;;;;5.30;2.00;;;12.30;99.90;;;;;;5056546;28;20141;-77
2022/04/04 03:20:31;;;;;;;6.15;2.45;;;12.20;99.90;;;;;;5090562;28;20063;-77
2022/04/04 03:23:00;;;;;;;4.65;2.60;;;12.20;99.90;;;;;;5055687;28;20120;-77
2022/04/04 03:25:28;;;;;;;4.63;2.58;;;12.10;99.90;;;;;;5072906;28;20405;-77
2022/04/04 03:27:56;;;;;;;4.63;2.55;;;12.10;99.90;;;;;;5091147;28;20040;-77
2022/04/04 03:30:26;;;;;;;5.07;2.67;;;12.20;99.90;;;;;;5072327;28;20050;-77
2022/04/04 03:32:57;;;;;;;3.33;2.38;;;12.20;99.90;;;;;;5071963;28;20573;-77
2022/04/04 03:35:30;;;;;;;4.93;2.42;;;12.20;99.90;;;;;;5072084;28;20379;-77
2022/04/04 03:38:00;;;;;;;4.10;2.17;;;12.20;99.90;;;;;;5037316;28;20134;-77
2022/04/04 03:40:29;;;;;;;4.50;2.25;;;12.20;99.90;;;;;;5019148;28;20138;-77
2022/04/04 03:42:57;;;;;;;3.75;2.25;;;12.20;99.90;;;;;;5036082;28;20049;-77
2022/04/04 03:45:25;;;;;;;4.85;2.58;;;12.20;99.90;;;;;;5034937;28;20079;-77
2022/04/04 03:47:53;;;;;;;4.13;2.47;;;12.20;99.90;;;;;;5019410;28;20055;-78
2022/04/04 03:50:21;;;;;;;5.18;2.08;;;12.30;99.90;;;;;;5051840;28;20129;-78
2022/04/04 03:52:53;;;;;;;3.63;2.15;;;12.30;99.90;;;;;;5069518;28;20076;-77
2022/04/04 03:55:26;;;;;;;3.08;2.10;;;12.30;99.90;;;;;;5052259;28;20708;-78
2022/04/04 03:57:55;;;;;;;2.97;2.17;;;12.20;99.90;;;;;;5052193;28;20048;-78
2022/04/04 04:00:24;;;;;;;4.22;2.28;;;12.30;99.90;;;;;;5035462;28;20052;-78
2022/04/04 04:02:52;;;;;;;3.65;2.17;;;12.30;99.90;;;;;;5035943;28;20067;-78
2022/04/04 04:05:20;;;;;;;6.22;2.65;;;12.30;99.90;;;;;;5019414;28;20137;-77
2022/04/04 04:07:49;;;;;;;4.10;2.42;;;12.30;99.90;;;;;;5036109;28;20059;-77
2022/04/04 04:10:17;;;;;;;14.35;3.53;;;12.30;99.90;;;;;;5035575;28;20575;-78
2022/04/04 04:12:45;;;;;;;4.95;2.83;;;12.30;99.90;;;;;;5052031;28;20060;-78
2022/04/04 04:15:16;;;;;;;8.18;3.38;;;12.30;99.90;;;;;;5035371;28;20098;-78
2022/04/04 04:17:44;;;;;;;3.38;2.00;;;12.30;99.90;;;;;;5052190;28;20060;-77
2022/04/04 04:20:26;;;;;;;3.08;1.92;;;12.30;99.90;;;;;;5051876;28;20052;-77
2022/04/04 04:22:56;;;;;;;4.28;2.60;;;12.40;99.90;;;;;;5019275;28;20144;-77
2022/04/04 04:25:30;;;;;;;3.85;2.60;;;12.40;99.90;;;;;;5035657;28;20045;-77
2022/04/04 04:28:00;;;;;;;3.53;2.38;;;12.40;99.90;;;;;;5053990;28;20055;-77
2022/04/04 04:30:29;;;;;;;5.25;2.50;;;12.40;99.90;;;;;;5071551;28;20411;-77
2022/04/04 04:32:57;;;;;;;7.93;2.75;;;12.30;99.90;;;;;;5054728;28;20059;-78
2022/04/04 04:35:25;;;;;;;4.78;3.10;;;12.30;99.90;;;;;;5038616;28;20048;-77
2022/04/04 04:37:52;;;;;;;5.88;3.00;;;12.30;99.90;;;;;;5055001;28;20133;-77
2022/04/04 04:40:20;;;;;;;4.72;2.45;;;12.30;99.90;;;;;;5071680;28;20113;-77
2022/04/04 04:42:50;;;;;;;4.78;3.10;;;12.30;99.90;;;;;;5074463;28;20097;-78
2022/04/04 04:45:17;;;;;;;6.65;3.83;;;12.30;99.90;;;;;;5093774;28;20043;-77
2022/04/04 04:47:45;;;;;;;5.22;3.53;;;12.30;99.90;;;;;;5058872;28;20066;-78
2022/04/04 04:50:15;;;;;;;5.07;3.97;;;12.30;99.90;;;;;;5058351;28;20087;-78
2022/04/04 04:52:46;;;;;;;5.82;3.15;;;12.30;99.90;;;;;;5075363;28;20056;-77
2022/04/04 04:55:15;;;;;;;4.45;3.20;;;12.30;99.90;;;;;;5075882;28;20051;-78
2022/04/04 04:57:43;;;;;;;8.93;4.13;;;12.30;99.90;;;;;;5058447;28;20494;-77
2022/04/04 05:00:13;;;;;;;6.95;3.83;;;12.30;99.90;;;;;;5038294;28;20151;-78
2022/04/04 05:02:43;;;;;;;5.63;3.53;;;12.30;99.90;;;;;;5039323;28;20056;-77
2022/04/04 05:05:11;;;;;;;7.15;3.38;;;12.40;99.90;;;;;;5054988;28;20045;-78
2022/04/04 05:07:38;;;;;;;5.78;3.25;;;12.40;99.90;;;;;;5071537;28;20115;-77
2022/04/04 05:10:06;;;;;;;10.23;4.10;;;12.40;99.90;;;;;;5072695;28;20102;-78
2022/04/04 05:12:34;;;;;;;5.25;3.30;;;12.30;99.90;;;;;;5038438;28;20437;-78
2022/04/04 05:15:01;;;;;;;5.25;3.22;;;12.40;99.90;;;;;;5071578;28;20050;-77
2022/04/04 05:17:29;;;;;;;6.30;3.30;;;12.40;99.90;;;;;;5072199;28;20075;-77
2022/04/04 05:19:58;;;;;;;4.57;3.03;;;12.40;99.90;;;;;;5055379;28;20427;-77
2022/04/04 05:22:25;;;;;;;6.47;3.05;;;12.40;99.90;;;;;;5055283;28;20091;-78
2022/04/04 05:24:53;;;;;;;5.75;3.25;;;12.40;99.90;;;;;;5071182;28;20518;-77
2022/04/04 05:27:20;;;;;;;4.32;2.90;;;12.50;99.90;;;;;;5071808;28;20513;-77
2022/04/04 05:29:48;;;;;;;6.40;2.40;;;12.50;99.90;;;;;;5071777;28;20045;-78
2022/04/04 05:32:16;;;;;;;5.65;2.75;;;12.60;99.90;;;;;;5072452;28;20395;-78
2022/04/04 05:34:44;;;;;;;4.80;2.42;;;12.60;99.90;;;;;;5072468;28;20053;-77
2022/04/04 05:37:12;;;;;;;6.00;2.65;;;12.60;99.90;;;;;;5054408;28;20048;-77
2022/04/04 05:39:40;;;;;;;6.78;2.50;;;12.60;99.90;;;;;;5070817;28;20036;-78
2022/04/04 05:42:07;;;;;;;4.13;2.47;;;12.60;99.90;;;;;;5054646;28;20460;-77
2022/04/04 05:44:35;;;;;;;8.05;3.38;;;12.70;99.90;;;;;;5071602;28;20044;-78
2022/04/04 05:47:04;;;;;;;6.63;2.88;;;12.70;99.90;;;;;;5060193;28;20080;-79
2022/04/04 05:49:32;;;;;;;4.28;2.10;;;12.70;99.90;;;;;;5062690;28;20058;-77
2022/04/04 05:51:59;;;;;;;6.40;2.53;;;12.70;99.90;;;;;;5065058;28;20114;-79
2022/04/04 05:54:28;;;;;;;3.78;2.03;;;12.70;99.90;;;;;;5065175;28;20766;-78
2022/04/04 05:56:56;;;;;;;5.68;1.90;;;12.80;99.90;;;;;;5032610;28;20473;-78
2022/04/04 05:59:25;;;;;;;1.88;1.30;;;12.80;99.90;;;;;;5065751;28;20387;-79
2022/04/04 06:01:52;;;;;;;5.10;2.10;;;12.90;99.90;;;;;;5080998;28;20136;-79
2022/04/04 06:04:22;;;;;;;2.58;1.70;;;12.90;99.80;;;;;;5062115;28;20456;-79
2022/04/04 06:06:50;;;;;;;5.85;1.95;;;12.90;99.80;;;;;;5065396;28;20063;-80
2022/04/04 06:09:17;;;;;;;7.15;2.50;;;13.00;99.80;;;;;;5053364;28;20053;-78
2022/04/04 06:11:45;;;;;;;9.98;2.22;;;13.00;99.80;;;;;;5080648;28;20123;-80
2022/04/04 06:14:12;;;;;;;5.50;2.63;;;13.10;99.80;;;;;;5064561;28;20105;-79
2022/04/04 06:16:40;;;;;;;8.77;3.65;;;13.10;99.80;;;;;;5075822;28;20036;-79
2022/04/04 06:19:10;;;;;;;4.20;2.10;;;13.10;99.80;;;;;;5076218;28;20059;-77
2022/04/04 06:21:38;;;;;;;7.05;2.25;;;13.10;99.90;;;;;;5057330;28;20121;-79
2022/04/04 06:24:05;;;;;;;5.68;2.55;;;13.10;99.90;;;;;;5075061;28;20058;-79
2022/04/04 06:26:33;;;;;;;6.03;4.50;;;13.10;99.90;;;;;;5075128;28;20040;-79
2022/04/04 06:29:01;;;;;;;14.13;6.63;;;13.20;99.90;;;;;;5072257;28;20087;-78
2022/04/04 06:31:28;;;;;;;13.93;8.85;;;13.20;99.90;;;;;;5080295;28;20040;-77
2022/04/04 06:33:56;;;;;;;16.83;10.30;;;13.20;99.90;;;;;;5076793;28;20044;-78
2022/04/04 06:36:26;;;;;;;18.60;10.98;;;13.30;99.90;;;;;;5059417;28;20094;-78
2022/04/04 06:38:54;;;;;;;14.77;9.57;;;13.30;99.90;;;;;;5077611;28;20551;-78
2022/04/04 06:41:21;;;;;;;17.02;9.73;;;13.30;99.90;;;;;;5065925;28;20119;-79
2022/04/04 06:43:51;;;;;;;13.32;8.82;;;13.30;99.90;;;;;;5077460;28;20044;-77
2022/04/04 06:46:19;;;;;;;12.02;7.40;;;13.40;99.90;;;;;;5041636;28;20060;-77
2022/04/04 06:48:49;;;;;;;9.60;6.35;;;13.40;99.90;;;;;;5077202;28;20040;-78
2022/04/04 06:51:18;;;;;;;9.65;6.10;;;13.50;99.90;;;;;;5037613;28;20044;-78
2022/04/04 06:53:45;;;;;;;9.88;6.85;;;13.50;99.90;;;;;;5057572;28;20051;-80
2022/04/04 06:56:14;;;;;;;14.07;7.20;;;13.50;99.90;;;;;;5073101;28;20056;-79
2022/04/04 06:58:41;;;;;;;13.82;7.13;;;13.60;99.90;;;;;;5079316;28;20060;-77
2022/04/04 07:01:09;;;;;;;8.98;5.43;;;13.60;99.90;;;;;;5064077;28;20548;-78
2022/04/04 07:03:36;;;;;;;7.55;3.72;;;13.70;99.90;;;;;;5063717;28;20059;-78
2022/04/04 07:06:05;;;;;;;7.90;3.88;;;13.70;99.90;;;;;;5059576;28;20560;-78
2022/04/04 07:08:33;;;;;;;4.13;2.38;;;13.80;99.90;;;;;;5075998;28;20086;-78
2022/04/04 07:11:01;;;;;;;6.75;1.85;;;13.80;99.90;;;;;;5072610;28;20119;-78
2022/04/04 07:13:31;;;;;;;3.70;1.75;;;13.80;99.80;;;;;;5080561;28;20171;-77
2022/04/04 07:15:59;;;;;;;5.97;2.05;;;13.70;99.30;;;;;;5073527;28;20563;-77
2022/04/04 07:18:26;;;;;;;2.50;1.45;;;13.80;99.10;;;;;;5089601;28;20044;-77
2022/04/04 07:20:54;;;;;;;3.08;1.52;;;13.70;99.10;;;;;;5077350;28;20479;-77
2022/04/04 07:23:21;;;;;;;3.03;2.00;;;13.70;99.10;;;;;;5049432;28;20140;-78
2022/04/04 07:25:49;;;;;;;6.35;1.80;;;13.70;99.00;;;;;;5067827;28;20106;-78
2022/04/04 07:28:17;;;;;;;4.75;1.90;;;13.60;99.20;;;;;;5067776;28;20052;-78
2022/04/04 07:30:44;;;;;;;3.72;2.17;;;13.50;99.40;;;;;;5046631;28;20054;-78
2022/04/04 07:33:15;;;;;;;6.10;2.78;;;13.50;99.60;;;;;;5032538;28;20686;-78
2022/04/04 07:35:44;;;;;;;4.43;2.55;;;13.50;99.80;;;;;;5032009;28;20110;-79
2022/04/04 07:38:12;;;;;;;5.10;2.30;;;13.50;99.90;;;;;;5048296;28;20044;-78
2022/04/04 07:40:40;;;;;;;4.05;2.67;;;13.60;99.90;;;;;;5037272;28;20045;-79
2022/04/04 07:43:08;;;;;;;5.38;3.03;;;13.60;99.90;;;;;;5048274;28;20444;-78
2022/04/04 07:45:36;;;;;;;6.45;2.97;;;13.60;99.90;;;;;;5048780;28;20048;-78
2022/04/04 07:48:08;;;;;;;7.40;5.30;;;13.70;99.90;;;;;;5089914;28;20127;-78
2022/04/04 07:50:36;;;;;;;12.55;8.52;;;13.60;99.90;;;;;;5075697;28;20371;-77
2022/04/04 07:53:06;;;;;;;8.18;4.85;;;13.60;99.90;;;;;;5047950;28;20087;-78
2022/04/04 07:55:36;;;;;;;7.78;3.63;;;13.50;99.90;;;;;;5036731;28;20612;-79
2022/04/04 07:58:07;;;;;;;3.67;1.90;;;13.50;99.90;;;;;;5051340;28;20044;-79
2022/04/04 08:00:35;;;;;;;4.07;1.83;;;13.50;99.70;;;;;;5055743;28;20494;-79
2022/04/04 08:03:04;;;;;;;17.60;9.32;;;13.50;99.70;;;;;;5034552;28;20044;-79
2022/04/04 08:05:32;;;;;;;17.88;9.32;;;13.50;99.70;;;;;;5046717;28;20572;-78
2022/04/04 08:08:01;;;;;;;14.00;8.60;;;13.60;99.70;;;;;;5051799;28;20079;-79
2022/04/04 08:10:29;;;;;;;11.10;5.60;;;13.70;99.80;;;;;;5062185;28;20425;-79
2022/04/04 08:12:57;;;;;;;18.35;8.00;;;13.70;99.50;;;;;;5038525;28;20048;-79
2022/04/04 08:15:25;;;;;;;7.30;4.20;;;13.70;99.60;;;;;;5068101;28;20040;-78
2022/04/04 08:17:55;;;;;;;14.75;7.13;;;13.60;99.40;;;;;;5043597;28;20161;-78
2022/04/04 08:20:23;;;;;;;11.57;5.57;;;13.70;99.50;;;;;;5076092;28;20552;-78
2022/04/04 08:22:52;;;;;;;8.23;4.15;;;13.70;99.50;;;;;;5076194;28;20555;-78
2022/04/04 08:25:19;;;;;;;12.30;5.28;;;13.70;99.60;;;;;;5058905;28;20036;-78
2022/04/04 08:27:47;;;;;;;9.38;3.50;;;13.70;99.70;;;;;;5076236;28;20512;-78
2022/04/04 08:30:17;;;;;;;25.95;11.43;;;13.60;99.70;;;;;;5094166;28;20059;-78
2022/04/04 08:32:46;;;;;;;18.88;6.80;;;13.50;99.80;;;;;;5094005;28;20397;-78
2022/04/04 08:35:15;;;;;;;9.90;5.10;;;13.50;99.90;;;;;;5059554;28;20071;-78
2022/04/04 08:37:45;;;;;;;9.57;4.53;;;13.60;99.90;;;;;;5059402;28;20051;-77
2022/04/04 08:40:14;;;;;;;15.18;6.50;;;13.60;99.90;;;;;;5093983;28;20048;-78
2022/04/04 08:42:45;;;;;;;13.20;6.45;;;13.60;99.90;;;;;;5075753;28;20072;-78
2022/04/04 08:45:13;;;;;;;9.85;4.97;;;13.60;99.90;;;;;;5075851;28;20040;-78
2022/04/04 08:47:41;;;;;;;11.05;6.28;;;13.70;99.90;;;;;;5076180;28;20036;-78
2022/04/04 08:50:11;;;;;;;7.35;4.03;;;13.80;99.40;;;;;;5058761;28;20066;-78
2022/04/04 08:52:39;;;;;;;10.35;3.97;;;13.90;99.20;;;;;;5075700;28;20115;-78
2022/04/04 08:55:08;;;;;;;5.10;2.80;;;14.00;99.10;;;;;;5075965;28;20109;-78
2022/04/04 08:57:35;;;;;;;5.28;2.65;;;14.10;98.60;;;;;;5093662;28;20154;-78
2022/04/04 09:00:04;;;;;;;4.03;2.08;;;14.00;95.30;;;;;;5059045;28;20052;-78
2022/04/04 09:02:32;;;;;;;3.97;1.70;;;14.10;95.40;;;;;;5074960;28;20048;-79
2022/04/04 09:05:05;;;;;;;1.90;1.23;;;14.00;94.60;;;;;;5058555;28;20111;-78
2022/04/04 09:07:32;;;;;;;1.92;0.98;;;14.00;94.90;;;;;;5090983;28;20569;-78
2022/04/04 09:10:00;;;;;;;3.22;1.83;;;14.10;94.90;;;;;;5075329;28;20563;-78
2022/04/04 09:12:28;;;;;;;2.63;1.40;;;14.20;95.00;;;;;;5092965;28;20046;-78
2022/04/04 09:14:57;;;;;;;3.20;1.17;;;14.30;94.70;;;;;;5074894;28;20040;-78
2022/04/04 09:17:32;;;;;;;2.65;1.55;;;14.10;93.80;;;;;;5075649;28;20040;-78
2022/04/04 09:20:08;;;;;;;4.20;2.00;;;14.20;93.70;;;;;;5058804;28;20517;-79
2022/04/04 09:22:55;;;;;;;3.50;2.50;;;14.30;93.30;;;;;;5041970;28;20134;-79
2022/04/04 09:25:32;;;;;;;2.80;1.70;;;14.50;93.30;;;;;;5058317;28;20043;-79
2022/04/04 09:28:14;;;;;;;2.35;1.70;;;14.60;92.80;;;;;;5074818;28;20131;-78
2022/04/04 09:30:42;;;;;;;2.58;0.93;;;14.70;91.00;;;;;;5075268;28;20072;-79
2022/04/04 09:33:14;;;;;;;1.63;1.27;;;14.80;90.60;;;;;;5058757;28;20040;-78
2022/04/04 09:35:46;;;;;;;5.38;1.23;;;14.90;90.40;;;;;;5058744;28;20044;-78
2022/04/04 09:38:15;;;;;;;2.17;1.35;;;15.10;90.20;;;;;;5074767;28;20047;-78
2022/04/04 09:40:43;;;;;;;3.17;1.33;;;15.20;90.20;;;;;;5092757;28;20071;-78
2022/04/04 09:43:11;;;;;;;4.20;1.25;;;15.30;90.10;;;;;;5074962;28;20442;-78
2022/04/04 09:45:40;;;;;;;1.40;0.90;;;15.40;88.90;;;;;;5092567;28;20108;-79
2022/04/04 09:48:11;;;;;;;4.10;1.90;;;15.50;89.20;;;;;;5071721;28;20050;-79
2022/04/04 09:50:48;;;;;;;4.05;1.63;;;15.60;89.10;;;;;;5068023;28;20044;-78
2022/04/04 09:53:15;;;;;;;;;;;15.50;88.30;;;;;;5051118;28;20067;-79
2022/04/04 09:55:49;;;;;;;4.82;1.40;;;15.50;88.10;;;;;;5099898;28;20454;-79
2022/04/04 09:58:22;;;;;;;4.45;1.40;;;15.60;87.10;;;;;;5045881;28;20084;-79
2022/04/04 10:00:50;;;;;;;1.33;0.93;;;15.70;87.70;;;;;;5055827;28;20075;-80
2022/04/04 10:03:20;;;;;;;4.35;1.05;;;15.90;87.40;;;;;;5050797;28;20107;-79
2022/04/04 10:05:56;;;;;;;1.83;0.90;;;16.00;87.90;;;;;;5098721;28;20127;-79
2022/04/04 10:08:25;;;;;;;3.95;1.55;;;16.00;87.30;;;;;;5085297;28;20127;-79
2022/04/04 10:10:54;;;;;;;3.65;1.52;;;16.20;87.60;;;;;;5061622;28;20040;-80
2022/04/04 10:13:23;;;;;;;1.70;1.10;;;16.20;87.50;;;;;;5077375;28;20050;-79
2022/04/04 10:15:52;;;;;;;6.85;1.75;;;16.30;87.80;;;;;;5074530;28;20138;-79
2022/04/04 10:18:21;;;;;;;1.65;1.00;;;16.40;87.70;;;;;;5057053;28;20379;-79
2022/04/04 10:20:55;;;;;;;2.95;1.50;;;16.50;86.80;;;;;;5074496;28;20042;-79
2022/04/04 10:23:25;;;;;;;3.05;1.65;;;16.40;87.90;;;;;;5074451;28;20097;-79
2022/04/04 10:25:53;;;;;;;3.28;1.38;;;16.30;87.60;;;;;;5073661;28;20056;-79
2022/04/04 10:28:28;;;;;;;2.75;1.30;;;16.30;87.70;;;;;;5073657;28;20042;-79
2022/04/04 10:31:10;;;;;;;2.03;1.20;;;16.30;87.50;;;;;;5092059;28;20044;-77
2022/04/04 10:33:39;;;;;;;5.55;2.90;;;16.10;87.30;;;;;;5057021;28;20059;-79
2022/04/04 10:36:12;;;;;;;3.38;1.67;;;15.90;87.90;;;;;;5073585;28;20059;-78
2022/04/04 10:38:54;;;;;;;4.05;1.52;;;15.80;88.30;;;;;;5072969;28;20055;-78
2022/04/04 10:41:27;;;;;;;3.33;1.83;;;15.80;88.20;;;;;;5038863;28;20043;-78
2022/04/04 10:43:55;;;;;;;3.25;1.92;;;15.80;88.60;;;;;;5091795;28;20567;-73
2022/04/04 10:46:25;;;;;;;8.90;2.42;;;15.80;89.70;;;;;;5073098;28;20044;-73
2022/04/04 10:49:03;;;;;;;4.82;2.17;;;15.70;89.70;;;;;;5073334;28;20051;-72
2022/04/04 10:51:34;;;;;;;7.10;1.75;;;15.70;90.20;;;;;;5092269;28;20055;-72
2022/04/04 10:54:11;;;;;;;3.63;1.90;;;15.40;90.30;;;;;;5091657;28;20494;-73
2022/04/04 10:56:46;;;;;;;4.95;2.25;;;15.20;93.90;;;;;;5091591;28;20036;-72
2022/04/04 10:59:16;;;;;;;5.32;2.80;;;15.10;94.90;;;;;;5073319;28;20048;-74
2022/04/04 11:02:04;;;;;;;6.13;2.58;;;15.10;95.50;;;;;;5073650;28;20044;-72
2022/04/04 11:07:38;;;;;;;4.45;1.80;;;15.00;95.80;;;;;;5073327;28;20047;-72
2022/04/04 11:07:41;;;;;;;6.93;2.53;;;15.00;95.30;;;;;;5091153;28;20402;-74
2022/04/04 11:10:10;;;;;;;4.88;2.03;;;14.90;96.00;;;;;;5073238;28;20044;-71
2022/04/04 11:13:04;;;;;;;5.30;2.22;;;15.00;96.70;;;;;;5056559;28;20074;-71
2022/04/04 11:15:54;;;;;;;4.28;2.80;;;15.00;96.60;;;;;;5073006;28;20138;-71
2022/04/04 11:18:32;;;;;;;4.03;2.38;;;15.00;97.30;;;;;;5056100;28;20047;-70
2022/04/04 11:21:02;;;;;;;3.75;2.13;;;14.90;97.10;;;;;;5091168;28;20040;-70
2022/04/04 11:23:34;;;;;;;3.75;1.58;;;14.80;97.80;;;;;;5056529;28;20043;-70
2022/04/04 11:26:08;;;;;;;6.15;2.38;;;14.70;98.50;;;;;;5073209;28;20059;-70
2022/04/04 11:28:38;;;;;;;3.90;2.00;;;14.70;98.20;;;;;;5091184;28;20161;-71
2022/04/04 11:31:11;;;;;;;4.60;1.50;;;14.60;98.10;;;;;;5039620;28;20055;-72
2022/04/04 11:33:51;;;;;;;2.88;1.35;;;14.60;98.50;;;;;;5070367;28;20154;-72
2022/04/04 11:36:22;;;;;;;6.88;3.17;;;14.60;98.70;;;;;;5072127;28;20109;-72
2022/04/04 11:38:56;;;;;;;5.22;2.55;;;14.50;98.70;;;;;;5091145;28;20051;-72
2022/04/04 11:41:25;;;;;;;3.28;1.80;;;14.50;98.60;;;;;;5039595;28;20040;-72
2022/04/04 11:43:53;;;;;;;4.20;2.17;;;14.60;98.50;;;;;;5056312;28;20048;-73
2022/04/04 11:46:22;;;;;;;3.17;1.75;;;14.50;98.70;;;;;;5056027;28;20122;-72
2022/04/04 11:48:54;;;;;;;8.27;1.70;;;14.40;98.80;;;;;;5055972;28;20048;-72
2022/04/04 11:51:34;;;;;;;4.80;2.80;;;14.50;99.00;;;;;;5055844;28;20055;-72
2022/04/04 11:54:04;;;;;;;6.35;2.25;;;14.40;99.30;;;;;;5072872;28;20410;-71
2022/04/04 11:56:32;;;;;;;5.97;2.45;;;14.40;99.40;;;;;;5055865;28;20060;-72
2022/04/04 11:59:03;;;;;;;7.93;3.05;;;14.40;99.20;;;;;;5072529;28;20055;-72
2022/04/04 12:01:34;;;;;;;5.40;2.00;;;14.40;98.80;;;;;;5056131;28;20105;-73
2022/04/04 12:04:05;;;;;;;4.40;2.08;;;14.40;99.00;;;;;;5055991;28;20147;-72
2022/04/04 12:06:34;;;;;;;3.08;1.45;;;14.40;99.20;;;;;;5072311;28;20032;-74
2022/04/04 12:09:07;;;;;;;4.03;1.70;;;14.30;99.30;;;;;;5073149;28;20047;-73
2022/04/04 12:11:35;;;;;;;5.50;1.50;;;14.40;99.40;;;;;;5055982;28;20048;-72
2022/04/04 12:14:02;;;;;;;2.67;1.40;;;14.40;99.30;;;;;;5072143;28;20068;-72
2022/04/04 12:16:32;;;;;;;2.70;1.50;;;14.40;99.30;;;;;;5071620;28;20040;-72
2022/04/04 12:19:01;;;;;;;7.50;1.40;;;14.40;99.50;;;;;;5072980;28;20048;-72
2022/04/04 12:21:32;;;;;;;4.30;2.20;;;14.30;99.60;;;;;;5073253;28;20047;-72
2022/04/04 12:27:09;;;;;;;3.25;1.58;;;14.10;99.80;;;;;;5090196;28;20063;-72
2022/04/04 12:29:45;;;;;;;5.55;1.77;;;14.10;99.90;;;;;;5055999;28;20097;-72
2022/04/04 12:32:15;;;;;;;5.25;2.25;;;14.10;99.90;;;;;;5070006;28;20056;-73
2022/04/04 12:35:01;;;;;;;6.78;3.92;;;14.10;99.90;;;;;;5055874;28;20117;-72
2022/04/04 12:37:43;;;;;;;4.80;1.95;;;14.10;99.80;;;;;;5072187;28;20067;-72
2022/04/04 12:40:25;;;;;;;4.90;2.67;;;14.20;99.90;;;;;;5072778;28;20048;-71
2022/04/04 12:43:05;;;;;;;3.42;1.30;;;14.20;99.80;;;;;;5072649;28;20048;-72
2022/04/04 12:45:33;;;;;;;4.13;1.80;;;14.20;99.60;;;;;;5071913;28;20032;-71
2022/04/04 12:48:07;;;;;;;4.70;1.60;;;14.10;99.50;;;;;;5055852;28;20450;-72
2022/04/04 12:50:40;;;;;;;4.78;1.45;;;14.00;99.50;;;;;;5088464;28;20518;-72
2022/04/04 12:53:10;;;;;;;4.47;2.00;;;14.10;99.60;;;;;;5059022;28;20075;-76
2022/04/04 12:55:40;;;;;;;6.00;2.80;;;14.00;99.60;;;;;;5059818;28;20052;-71
2022/04/04 12:58:26;;;;;;;8.35;2.20;;;14.10;99.60;;;;;;5071637;28;20520;-73
2022/04/04 13:00:55;;;;;;;6.93;3.33;;;14.10;99.70;;;;;;5065706;28;20193;-73
2022/04/04 13:03:28;;;;;;;5.40;2.97;;;14.20;99.80;;;;;;5057452;28;20055;-73
2022/04/04 13:05:58;;;;;;;7.90;1.77;;;14.20;99.70;;;;;;5061551;28;20044;-72
2022/04/04 13:08:27;;;;;;;8.10;1.55;;;14.10;99.80;;;;;;5057810;28;20052;-73